createdAt,value
2018-11-05T00:01:26.462Z,10.00
2018-11-05T00:03:56.335Z,10.00
2018-11-05T00:06:26.179Z,10.00
2018-11-05T00:08:56.080Z,10.00
2018-11-05T00:11:26.023Z,10.00
2018-11-05T00:13:55.822Z,10.00
2018-11-05T00:16:25.610Z,10.00
2018-11-05T00:18:55.497Z,10.00
2018-11-05T00:21:25.360Z,10.00
2018-11-05T00:23:55.266Z,10.10
2018-11-05T00:26:25.440Z,10.00
2018-11-05T00:28:55.274Z,10.10
2018-11-05T00:31:25.270Z,10.10
2018-11-05T00:33:55.394Z,10.00
2018-11-05T00:36:25.411Z,10.10
2018-11-05T00:38:55.240Z,10.00
2018-11-05T00:41:25.110Z,10.00
2018-11-05T00:43:55.024Z,10.10
2018-11-05T00:46:24.904Z,10.00
2018-11-05T00:48:54.763Z,10.00
2018-11-05T00:51:24.713Z,10.00
2018-11-05T00:53:54.570Z,10.00
2018-11-05T00:56:25.329Z,10.00
2018-11-05T00:58:55.254Z,10.00
2018-11-05T01:01:25.232Z,10.00
2018-11-05T01:03:55.216Z,10.00
2018-11-05T01:06:25.311Z,10.00
2018-11-05T01:08:55.340Z,10.00
2018-11-05T01:11:25.435Z,10.00
2018-11-05T01:13:55.658Z,10.00
2018-11-05T01:16:25.847Z,10.00
2018-11-05T01:18:55.896Z,10.00
2018-11-05T01:21:25.905Z,10.10
2018-11-05T01:23:55.822Z,10.10
2018-11-05T01:26:25.926Z,10.10
2018-11-05T01:28:55.907Z,10.10
2018-11-05T01:31:26.260Z,10.10
2018-11-05T01:33:56.638Z,10.10
2018-11-05T01:36:26.673Z,10.10
2018-11-05T01:38:56.696Z,10.00
2018-11-05T01:41:26.643Z,10.00
2018-11-05T01:43:56.533Z,10.00
2018-11-05T01:46:26.442Z,10.00
2018-11-05T01:48:56.349Z,10.00
2018-11-05T01:51:26.291Z,9.90
2018-11-05T01:53:56.173Z,9.90
2018-11-05T01:56:26.063Z,9.90
2018-11-05T01:58:55.971Z,9.90
2018-11-05T02:01:25.893Z,9.80
2018-11-05T02:03:55.769Z,9.80
2018-11-05T02:06:25.787Z,9.70
2018-11-05T02:08:55.716Z,9.80
2018-11-05T02:11:25.533Z,9.70
2018-11-05T02:13:55.459Z,9.70
2018-11-05T02:16:25.422Z,9.70
2018-11-05T02:18:55.313Z,9.70
2018-11-05T02:21:25.240Z,9.70
2018-11-05T02:23:55.315Z,9.70
2018-11-05T02:26:25.252Z,9.70
2018-11-05T02:28:55.082Z,9.70
2018-11-05T02:31:25.036Z,9.70
2018-11-05T02:33:54.854Z,9.70
2018-11-05T02:36:24.758Z,9.70
2018-11-05T02:38:54.708Z,9.80
2018-11-05T02:41:24.592Z,9.80
2018-11-05T02:43:54.422Z,9.80
2018-11-05T02:46:24.324Z,9.80
2018-11-05T02:48:54.178Z,9.80
2018-11-05T02:51:24.058Z,9.90
2018-11-05T02:53:53.988Z,9.90
2018-11-05T02:56:23.876Z,9.90
2018-11-05T02:58:53.625Z,9.90
2018-11-05T03:01:23.606Z,9.90
2018-11-05T03:03:53.592Z,9.90
2018-11-05T03:06:23.454Z,9.90
2018-11-05T03:08:53.309Z,9.90
2018-11-05T03:11:23.165Z,9.90
2018-11-05T03:13:52.984Z,9.90
2018-11-05T03:16:23.008Z,9.90
2018-11-05T03:18:52.874Z,9.90
2018-11-05T03:21:22.817Z,9.90
2018-11-05T03:23:52.622Z,9.90
2018-11-05T03:26:22.470Z,9.90
2018-11-05T03:28:52.405Z,9.90
2018-11-05T03:31:22.335Z,9.90
2018-11-05T03:33:52.306Z,10.00
2018-11-05T03:36:22.149Z,9.90
2018-11-05T03:38:52.128Z,10.00
2018-11-05T03:41:22.041Z,10.00
2018-11-05T03:43:51.968Z,10.00
2018-11-05T03:46:21.802Z,10.00
2018-11-05T03:48:51.770Z,10.00
2018-11-05T03:51:21.619Z,10.10
2018-11-05T03:53:51.531Z,10.00
2018-11-05T03:56:21.589Z,10.00
2018-11-05T03:58:51.397Z,10.00
2018-11-05T04:01:21.458Z,10.00
2018-11-05T04:03:51.375Z,10.00
2018-11-05T04:06:21.352Z,10.00
2018-11-05T04:08:51.363Z,10.00
2018-11-05T04:11:21.253Z,10.00
2018-11-05T04:13:51.123Z,10.00
2018-11-05T04:16:21.012Z,10.00
2018-11-05T04:18:50.863Z,10.00
2018-11-05T04:21:20.734Z,10.00
2018-11-05T04:23:50.622Z,10.00
2018-11-05T04:26:20.571Z,10.10
2018-11-05T04:28:50.655Z,10.10
2018-11-05T04:31:20.629Z,10.10
2018-11-05T04:33:50.705Z,10.10
2018-11-05T04:36:20.607Z,10.10
2018-11-05T04:38:50.403Z,10.10
2018-11-05T04:41:20.423Z,10.10
2018-11-05T04:43:50.379Z,10.10
2018-11-05T04:46:20.209Z,10.10
2018-11-05T04:48:50.097Z,10.10
2018-11-05T04:51:20.131Z,10.10
2018-11-05T04:53:50.152Z,10.10
2018-11-05T04:56:20.121Z,10.10
2018-11-05T04:58:50.054Z,10.10
2018-11-05T05:01:19.952Z,10.10
2018-11-05T05:03:49.875Z,10.20
2018-11-05T05:06:19.835Z,10.10
2018-11-05T05:08:49.854Z,10.10
2018-11-05T05:11:19.800Z,10.10
2018-11-05T05:13:49.768Z,10.10
2018-11-05T05:16:19.757Z,10.10
2018-11-05T05:18:49.678Z,10.10
2018-11-05T05:21:19.607Z,10.10
2018-11-05T05:23:49.638Z,10.00
2018-11-05T05:26:19.696Z,10.00
2018-11-05T05:28:49.545Z,10.00
2018-11-05T05:31:19.438Z,10.00
2018-11-05T05:33:49.582Z,10.00
2018-11-05T05:36:19.582Z,10.00
2018-11-05T05:38:49.438Z,10.00
2018-11-05T05:41:19.329Z,9.90
2018-11-05T05:43:49.227Z,9.90
2018-11-05T05:46:19.074Z,9.90
2018-11-05T05:48:49.036Z,9.90
2018-11-05T05:51:19.061Z,9.90
2018-11-05T05:53:48.873Z,10.00
2018-11-05T05:56:18.817Z,9.90
2018-11-05T05:58:48.731Z,9.90
2018-11-05T06:01:20.477Z,10.00
2018-11-05T06:03:50.538Z,10.00
2018-11-05T06:06:20.536Z,10.00
2018-11-05T06:08:50.349Z,10.00
2018-11-05T06:11:20.149Z,10.00
2018-11-05T06:13:50.142Z,10.00
2018-11-05T06:16:20.061Z,10.00
2018-11-05T06:18:50.074Z,10.00
2018-11-05T06:21:20.091Z,10.00
2018-11-05T06:23:49.999Z,10.00
2018-11-05T06:26:21.034Z,10.00
2018-11-05T06:28:51.016Z,10.00
2018-11-05T06:31:20.978Z,10.00
2018-11-05T06:33:50.876Z,10.00
2018-11-05T06:36:20.809Z,10.10
2018-11-05T06:38:50.864Z,10.10
2018-11-05T06:41:21.110Z,10.10
2018-11-05T06:43:50.977Z,10.10
2018-11-05T06:46:20.797Z,10.20
2018-11-05T06:48:50.780Z,10.20
2018-11-05T06:51:20.669Z,10.20
2018-11-05T06:53:50.777Z,10.20
2018-11-05T06:56:20.782Z,10.20
2018-11-05T06:58:50.775Z,10.30
2018-11-05T07:01:20.591Z,10.30
2018-11-05T07:03:50.555Z,10.30
2018-11-05T07:06:20.523Z,10.40
2018-11-05T07:08:50.548Z,10.40
2018-11-05T07:11:20.637Z,10.50
2018-11-05T07:13:50.543Z,10.50
2018-11-05T07:16:20.729Z,10.50
2018-11-05T07:18:50.998Z,10.60
2018-11-05T07:21:20.554Z,10.70
2018-11-05T07:23:50.554Z,10.70
2018-11-05T07:26:20.399Z,10.70
2018-11-05T07:28:50.354Z,10.80
2018-11-05T07:31:20.304Z,10.80
2018-11-05T07:33:50.298Z,10.90
2018-11-05T07:36:20.187Z,10.90
2018-11-05T07:38:49.955Z,11.00
2018-11-05T07:41:19.921Z,11.00
2018-11-05T07:43:49.991Z,11.10
2018-11-05T07:46:19.891Z,11.20
2018-11-05T07:48:49.743Z,11.20
2018-11-05T07:51:19.690Z,11.30
2018-11-05T07:53:49.687Z,11.30
2018-11-05T07:56:19.638Z,11.40
2018-11-05T07:58:49.465Z,11.50
2018-11-05T08:01:19.415Z,11.50
2018-11-05T08:03:49.382Z,11.60
2018-11-05T08:06:19.240Z,11.60
2018-11-05T08:08:49.126Z,11.60
2018-11-05T08:11:19.075Z,11.60
2018-11-05T08:13:48.866Z,11.70
2018-11-05T08:16:18.701Z,11.60
2018-11-05T08:18:48.600Z,11.70
2018-11-05T08:21:18.446Z,11.70
2018-11-05T08:23:48.352Z,11.70
2018-11-05T08:26:18.151Z,11.70
2018-11-05T08:28:48.146Z,11.70
2018-11-05T08:31:17.997Z,11.80
2018-11-05T08:33:47.897Z,11.90
2018-11-05T08:36:17.840Z,12.00
2018-11-05T08:38:47.737Z,12.10
2018-11-05T08:41:17.642Z,12.10
2018-11-05T08:43:47.620Z,12.20
2018-11-05T08:46:17.704Z,12.30
2018-11-05T08:48:47.642Z,12.40
2018-11-05T08:51:17.818Z,12.40
2018-11-05T08:53:47.474Z,12.50
2018-11-05T08:56:17.269Z,12.60
2018-11-05T08:58:47.161Z,12.70
2018-11-05T09:01:17.076Z,12.70
2018-11-05T09:03:49.416Z,12.80
2018-11-05T09:06:19.817Z,12.90
2018-11-05T09:08:49.652Z,13.00
2018-11-05T09:11:20.170Z,13.00
2018-11-05T09:13:49.690Z,13.10
2018-11-05T09:16:19.793Z,13.20
2018-11-05T09:18:49.702Z,13.20
2018-11-05T09:21:19.560Z,13.30
2018-11-05T09:23:49.558Z,13.40
2018-11-05T09:26:19.614Z,13.40
2018-11-05T09:28:49.754Z,13.40
2018-11-05T09:31:19.800Z,13.50
2018-11-05T09:33:49.806Z,13.60
2018-11-05T09:36:19.733Z,13.60
2018-11-05T09:38:49.671Z,13.60
2018-11-05T09:41:19.605Z,13.70
2018-11-05T09:43:49.772Z,13.70
2018-11-05T09:46:19.617Z,13.70
2018-11-05T09:48:49.594Z,13.70
2018-11-05T09:51:19.556Z,13.80
2018-11-05T09:53:49.607Z,13.80
2018-11-05T09:56:19.551Z,13.80
2018-11-05T09:58:49.387Z,13.90
2018-11-05T10:01:19.256Z,13.90
2018-11-05T10:03:56.421Z,13.90
2018-11-05T10:06:27.255Z,14.00
2018-11-05T10:08:57.207Z,14.00
2018-11-05T10:11:27.085Z,14.00
2018-11-05T10:13:56.863Z,14.10
2018-11-05T10:16:26.781Z,14.20
2018-11-05T10:18:56.898Z,14.30
2018-11-05T10:21:26.782Z,14.30
2018-11-05T10:23:56.748Z,14.40
2018-11-05T10:26:27.066Z,14.50
2018-11-05T10:28:57.068Z,14.60
2018-11-05T10:31:28.297Z,14.60
2018-11-05T10:33:58.301Z,14.70
2018-11-05T10:36:28.362Z,14.80
2018-11-05T10:38:58.158Z,14.80
2018-11-05T10:41:28.079Z,14.90
2018-11-05T10:43:58.028Z,15.00
2018-11-05T10:46:27.927Z,15.10
2018-11-05T10:48:57.876Z,15.20
2018-11-05T10:51:27.936Z,15.20
2018-11-05T10:53:58.030Z,15.30
2018-11-05T10:56:27.970Z,15.30
2018-11-05T10:58:57.835Z,15.30
2018-11-05T11:01:32.711Z,15.40
2018-11-05T11:04:07.887Z,15.40
2018-11-05T11:06:37.630Z,15.40
2018-11-05T11:09:09.846Z,15.30
2018-11-05T11:11:39.795Z,15.30
2018-11-05T11:14:09.778Z,15.30
2018-11-05T11:16:39.895Z,15.30
2018-11-05T11:19:09.803Z,15.30
2018-11-05T11:21:39.807Z,15.30
2018-11-05T11:24:09.555Z,15.30
2018-11-05T11:26:39.486Z,15.30
2018-11-05T11:29:09.418Z,15.40
2018-11-05T11:31:39.426Z,15.40
2018-11-05T11:34:09.518Z,15.50
2018-11-05T11:36:39.657Z,15.50
2018-11-05T11:39:11.757Z,15.50
2018-11-05T11:41:42.133Z,15.50
2018-11-05T11:44:12.230Z,15.60
2018-11-05T11:46:42.023Z,15.60
2018-11-05T11:49:11.928Z,15.60
2018-11-05T11:51:42.040Z,15.60
2018-11-05T11:54:11.919Z,15.60
2018-11-05T11:56:41.761Z,15.60
2018-11-05T11:59:11.934Z,15.70
2018-11-05T12:01:47.180Z,15.70
2018-11-05T12:04:17.142Z,15.70
2018-11-05T12:06:47.338Z,15.70
2018-11-05T12:09:17.245Z,15.70
2018-11-05T12:11:47.435Z,15.80
2018-11-05T12:14:17.533Z,15.70
2018-11-05T12:16:47.473Z,15.80
2018-11-05T12:19:17.353Z,15.80
2018-11-05T12:21:47.267Z,15.70
2018-11-05T12:24:17.315Z,15.70
2018-11-05T12:26:47.240Z,15.80
2018-11-05T12:29:17.258Z,15.70
2018-11-05T12:31:47.365Z,15.70
2018-11-05T12:34:17.327Z,15.70
2018-11-05T12:36:47.236Z,15.70
2018-11-05T12:39:17.343Z,15.60
2018-11-05T12:41:47.273Z,15.70
2018-11-05T12:44:17.204Z,15.60
2018-11-05T12:46:47.034Z,15.60
2018-11-05T12:49:17.083Z,15.60
2018-11-05T12:51:47.006Z,15.60
2018-11-05T12:54:17.086Z,15.60
2018-11-05T12:56:47.020Z,15.70
2018-11-05T12:59:16.914Z,15.70
2018-11-05T13:01:46.899Z,15.80
2018-11-05T13:04:16.947Z,15.80
2018-11-05T13:06:46.940Z,15.90
2018-11-05T13:09:16.923Z,16.00
2018-11-05T13:11:46.827Z,16.00
2018-11-05T13:14:16.771Z,16.10
2018-11-05T13:16:46.687Z,16.20
2018-11-05T13:19:16.581Z,16.20
2018-11-05T13:21:46.730Z,16.30
2018-11-05T13:24:16.641Z,16.30
2018-11-05T13:26:46.497Z,16.30
2018-11-05T13:29:16.529Z,16.30
2018-11-05T13:31:46.493Z,16.40
2018-11-05T13:36:46.741Z,16.40
2018-11-05T13:39:16.618Z,16.40
2018-11-05T13:41:46.618Z,16.40
2018-11-05T13:44:16.636Z,16.50
2018-11-05T13:46:46.909Z,16.50
2018-11-05T13:49:16.585Z,16.50
2018-11-05T13:51:46.382Z,16.50
2018-11-05T13:54:16.349Z,16.60
2018-11-05T13:56:46.226Z,16.60
2018-11-05T13:59:16.092Z,16.70
2018-11-05T14:01:46.170Z,16.70
2018-11-05T14:04:16.127Z,16.70
2018-11-05T14:06:49.650Z,16.70
2018-11-05T14:09:19.602Z,16.70
2018-11-05T14:11:49.538Z,16.70
2018-11-05T14:14:19.571Z,16.70
2018-11-05T14:16:49.444Z,16.70
2018-11-05T14:19:19.352Z,16.70
2018-11-05T14:21:49.260Z,16.70
2018-11-05T14:24:19.376Z,16.70
2018-11-05T14:26:49.260Z,16.70
2018-11-05T14:29:19.830Z,16.70
2018-11-05T14:31:49.202Z,16.70
2018-11-05T14:34:19.213Z,16.70
2018-11-05T14:36:49.442Z,16.70
2018-11-05T14:39:19.418Z,16.60
2018-11-05T14:41:49.378Z,16.60
2018-11-05T14:44:19.394Z,16.50
2018-11-05T14:46:49.403Z,16.50
2018-11-05T14:49:19.234Z,16.50
2018-11-05T14:51:49.123Z,16.40
2018-11-05T14:54:19.175Z,16.40
2018-11-05T14:56:49.150Z,16.30
2018-11-05T14:59:19.195Z,16.30
2018-11-05T15:01:53.257Z,16.30
2018-11-05T15:04:23.221Z,16.20
2018-11-05T15:06:53.399Z,16.20
2018-11-05T15:09:23.248Z,16.10
2018-11-05T15:11:53.366Z,16.10
2018-11-05T15:14:23.463Z,16.10
2018-11-05T15:16:53.657Z,16.10
2018-11-05T15:19:24.343Z,16.10
2018-11-05T15:21:54.402Z,16.10
2018-11-05T15:24:24.421Z,16.10
2018-11-05T15:26:55.713Z,16.10
2018-11-05T15:29:26.798Z,16.00
2018-11-05T15:31:57.228Z,16.00
2018-11-05T15:34:27.300Z,16.00
2018-11-05T15:36:57.495Z,16.00
2018-11-05T15:39:27.556Z,16.00
2018-11-05T15:41:57.578Z,16.00
2018-11-05T15:44:27.600Z,15.90
2018-11-05T15:46:57.530Z,15.90
2018-11-05T15:49:27.455Z,15.80
2018-11-05T15:51:57.913Z,15.80
2018-11-05T15:54:27.770Z,15.80
2018-11-05T15:56:57.832Z,15.70
2018-11-05T15:59:28.132Z,15.60
2018-11-05T16:02:02.274Z,15.50
2018-11-05T16:04:32.501Z,15.50
2018-11-05T16:07:02.676Z,15.40
2018-11-05T16:09:32.765Z,15.30
2018-11-05T16:12:02.706Z,15.30
2018-11-05T16:14:32.652Z,15.20
2018-11-05T16:17:02.566Z,15.10
2018-11-05T16:19:32.545Z,15.10
2018-11-05T16:22:02.493Z,15.00
2018-11-05T16:24:32.575Z,15.00
2018-11-05T16:27:02.478Z,14.90
2018-11-05T16:29:32.506Z,14.90
2018-11-05T16:32:06.329Z,14.80
2018-11-05T16:34:36.352Z,14.80
2018-11-05T16:37:06.697Z,14.70
2018-11-05T16:39:36.817Z,14.60
2018-11-05T16:42:06.943Z,14.60
2018-11-05T16:44:37.099Z,14.50
2018-11-05T16:47:07.486Z,14.40
2018-11-05T16:49:37.944Z,14.40
2018-11-05T16:52:09.463Z,14.30
2018-11-05T16:54:39.730Z,14.20
2018-11-05T16:57:10.710Z,14.20
2018-11-05T16:59:40.809Z,14.10
2018-11-05T17:02:14.404Z,14.10
2018-11-05T17:04:45.799Z,14.00
2018-11-05T17:07:16.391Z,14.00
2018-11-05T17:09:46.459Z,13.90
2018-11-05T17:12:16.588Z,13.90
2018-11-05T17:14:46.811Z,13.80
2018-11-05T17:17:16.947Z,13.80
2018-11-05T17:19:47.333Z,13.70
2018-11-05T17:22:17.811Z,13.70
2018-11-05T17:24:48.183Z,13.60
2018-11-05T17:27:18.059Z,13.60
2018-11-05T17:29:48.683Z,13.60
2018-11-05T17:32:18.753Z,13.50
2018-11-05T17:34:48.555Z,13.50
2018-11-05T17:37:18.827Z,13.50
2018-11-05T17:42:30.783Z,13.40
2018-11-05T17:45:01.037Z,13.40
2018-11-05T17:47:31.219Z,13.40
2018-11-05T17:50:01.530Z,13.40
2018-11-05T17:52:31.773Z,13.40
2018-11-05T17:55:02.023Z,13.40
2018-11-05T17:57:32.009Z,13.40
2018-11-05T18:00:01.935Z,13.40
2018-11-05T18:02:32.266Z,13.40
2018-11-05T18:05:02.299Z,13.40
2018-11-05T18:07:32.503Z,13.40
2018-11-05T18:10:02.437Z,13.40
2018-11-05T18:12:32.359Z,13.40
2018-11-05T18:15:02.474Z,13.40
2018-11-05T18:17:32.492Z,13.40
2018-11-05T18:20:02.553Z,13.40
2018-11-05T18:22:32.643Z,13.40
2018-11-05T18:25:02.707Z,13.40
2018-11-05T18:27:32.783Z,13.40
2018-11-05T18:30:02.669Z,13.40
2018-11-05T18:32:32.651Z,13.40
2018-11-05T18:35:03.033Z,13.40
2018-11-05T18:37:32.889Z,13.40
2018-11-05T18:40:02.824Z,13.40
2018-11-05T18:42:32.769Z,13.40
2018-11-05T18:45:02.634Z,13.40
2018-11-05T18:47:32.592Z,13.30
2018-11-05T18:50:02.677Z,13.30
2018-11-05T18:52:32.574Z,13.30
2018-11-05T18:55:02.521Z,13.30
2018-11-05T18:57:32.361Z,13.30
2018-11-05T19:00:02.255Z,13.20
2018-11-05T19:02:35.117Z,13.20
2018-11-05T19:05:05.214Z,13.20
2018-11-05T19:07:35.438Z,13.20
2018-11-05T19:10:06.505Z,13.20
2018-11-05T19:12:36.562Z,13.10
2018-11-05T19:15:08.060Z,13.10
2018-11-05T19:17:37.999Z,13.10
2018-11-05T19:20:08.609Z,13.10
2018-11-05T19:22:39.317Z,13.10
2018-11-05T19:25:11.096Z,13.10
2018-11-05T19:27:41.605Z,13.10
2018-11-05T19:30:15.609Z,13.10
2018-11-05T19:32:45.960Z,13.10
2018-11-05T19:35:15.941Z,13.10
2018-11-05T19:37:45.898Z,13.20
2018-11-05T19:40:16.518Z,13.10
2018-11-05T19:42:47.122Z,13.20
2018-11-05T19:45:18.706Z,13.20
2018-11-05T19:47:48.621Z,13.20
2018-11-05T19:50:19.848Z,13.20
2018-11-05T19:52:51.464Z,13.20
2018-11-05T19:55:21.447Z,13.20
2018-11-05T19:57:52.336Z,13.20
2018-11-05T20:00:25.563Z,13.20
2018-11-05T20:02:56.235Z,13.20
2018-11-05T20:05:26.460Z,13.20
2018-11-05T20:07:57.333Z,13.20
2018-11-05T20:10:27.381Z,13.20
2018-11-05T20:12:57.278Z,13.10
2018-11-05T20:15:27.361Z,13.10
2018-11-05T20:17:57.585Z,13.10
2018-11-05T20:20:27.753Z,13.10
2018-11-05T20:22:57.693Z,13.10
2018-11-05T20:25:27.563Z,13.00
2018-11-05T20:27:57.372Z,13.00
2018-11-05T20:30:28.151Z,13.00
2018-11-05T20:32:59.275Z,13.00
2018-11-05T20:35:28.910Z,13.00
2018-11-05T20:37:58.787Z,12.90
2018-11-05T20:40:28.815Z,12.90
2018-11-05T20:42:58.805Z,12.90
2018-11-05T20:45:28.801Z,12.90
2018-11-05T20:47:58.665Z,12.90
2018-11-05T20:50:28.517Z,12.80
2018-11-05T20:52:58.449Z,12.80
2018-11-05T20:55:28.321Z,12.80
2018-11-05T20:57:58.259Z,12.80
2018-11-05T21:00:28.143Z,12.80
2018-11-05T21:02:58.001Z,12.80
2018-11-05T21:05:27.847Z,12.70
2018-11-05T21:07:57.726Z,12.70
2018-11-05T21:10:27.514Z,12.70
2018-11-05T21:12:57.357Z,12.60
2018-11-05T21:15:27.463Z,12.60
2018-11-05T21:17:57.618Z,12.50
2018-11-05T21:20:27.553Z,12.50
2018-11-05T21:22:57.504Z,12.40
2018-11-05T21:25:27.462Z,12.40
2018-11-05T21:27:57.395Z,12.30
2018-11-05T21:30:27.243Z,12.30
2018-11-05T21:32:57.367Z,12.30
2018-11-05T21:35:27.321Z,12.20
2018-11-05T21:37:57.394Z,12.20
2018-11-05T21:40:27.376Z,12.20
2018-11-05T21:42:57.506Z,12.10
2018-11-05T21:45:27.455Z,12.10
2018-11-05T21:47:57.335Z,12.10
2018-11-05T21:50:27.178Z,12.00
2018-11-05T21:52:57.130Z,12.00
2018-11-05T21:55:26.978Z,12.00
2018-11-05T21:57:56.833Z,11.90
2018-11-05T22:00:26.774Z,11.90
2018-11-05T22:03:09.530Z,11.90
2018-11-05T22:05:39.405Z,11.80
2018-11-05T22:08:09.294Z,11.80
2018-11-05T22:10:39.340Z,11.80
2018-11-05T22:13:09.232Z,11.70
2018-11-05T22:15:47.381Z,11.70
2018-11-05T22:18:18.125Z,11.70
2018-11-05T22:20:47.965Z,11.60
2018-11-05T22:23:17.885Z,11.60
2018-11-05T22:25:47.781Z,11.60
2018-11-05T22:28:17.709Z,11.50
2018-11-05T22:30:47.509Z,11.50
2018-11-05T22:33:17.284Z,11.50
2018-11-05T22:35:47.302Z,11.50
2018-11-05T22:38:17.248Z,11.40
2018-11-05T22:40:47.131Z,11.40
2018-11-05T22:43:17.228Z,11.30
2018-11-05T22:45:47.050Z,11.30
2018-11-05T22:48:16.934Z,11.30
2018-11-05T22:50:46.870Z,11.20
2018-11-05T22:53:16.788Z,11.20
2018-11-05T22:55:46.618Z,11.20
2018-11-05T22:58:16.432Z,11.10
2018-11-05T23:00:51.570Z,11.10
2018-11-05T23:03:26.449Z,11.10
2018-11-05T23:05:56.727Z,11.00
2018-11-05T23:08:27.128Z,11.00
2018-11-05T23:10:57.339Z,10.90
2018-11-05T23:13:27.291Z,10.90
2018-11-05T23:15:57.173Z,10.90
2018-11-05T23:18:27.019Z,10.80
2018-11-05T23:20:56.934Z,10.70
2018-11-05T23:23:26.803Z,10.70
2018-11-05T23:25:56.790Z,10.70
2018-11-05T23:28:26.665Z,10.60
2018-11-05T23:30:56.573Z,10.60
2018-11-05T23:33:26.658Z,10.60
2018-11-05T23:35:56.465Z,10.60
2018-11-05T23:38:26.323Z,10.60
2018-11-05T23:40:56.251Z,10.60
2018-11-05T23:43:26.030Z,10.60
2018-11-05T23:45:55.850Z,10.50
2018-11-05T23:48:25.744Z,10.50
2018-11-05T23:50:55.581Z,10.50
2018-11-05T23:53:25.415Z,10.40
2018-11-05T23:55:55.287Z,10.40
2018-11-05T23:58:25.141Z,10.30
